sensor_id;sensor_type;location;lat;lon;timestamp;temperature;humidity
11003;DHT22;5554;55.796;13.090;2022-09-09T00:01:41;13.50;99.90
11003;DHT22;5554;55.796;13.090;2022-09-09T00:04:13;13.40;99.90
11003;DHT22;5554;55.796;13.090;2022-09-09T00:06:45;13.40;99.90
11003;DHT22;5554;55.796;13.090;2022-09-09T00:09:15;13.40;99.90
11003;DHT22;5554;55.796;13.090;2022-09-09T00:11:47;13.40;99.90
11003;DHT22;5554;55.796;13.090;2022-09-09T00:14:22;13.40;99.90
11003;DHT22;5554;55.796;13.090;2022-09-09T00:16:56;13.40;99.90
11003;DHT22;5554;55.796;13.090;2022-09-09T00:19:30;13.40;99.90
11003;DHT22;5554;55.796;13.090;2022-09-09T00:22:08;13.40;99.90
11003;DHT22;5554;55.796;13.090;2022-09-09T00:24:43;13.40;99.90
11003;DHT22;5554;55.796;13.090;2022-09-09T00:27:18;13.40;99.90
11003;DHT22;5554;55.796;13.090;2022-09-09T00:29:50;13.40;99.90
11003;DHT22;5554;55.796;13.090;2022-09-09T00:32:20;13.50;99.90
11003;DHT22;5554;55.796;13.090;2022-09-09T00:34:49;13.50;99.90
11003;DHT22;5554;55.796;13.090;2022-09-09T00:37:19;13.40;99.90
11003;DHT22;5554;55.796;13.090;2022-09-09T00:39:48;13.40;99.90
11003;DHT22;5554;55.796;13.090;2022-09-09T00:42:23;13.40;99.90
11003;DHT22;5554;55.796;13.090;2022-09-09T00:44:59;13.40;99.90
11003;DHT22;5554;55.796;13.090;2022-09-09T00:47:40;13.40;99.90
11003;DHT22;5554;55.796;13.090;2022-09-09T00:50:17;13.30;99.90
11003;DHT22;5554;55.796;13.090;2022-09-09T00:52:59;13.30;99.90
11003;DHT22;5554;55.796;13.090;2022-09-09T00:55:34;13.30;99.90
11003;DHT22;5554;55.796;13.090;2022-09-09T00:58:08;13.40;99.90
11003;DHT22;5554;55.796;13.090;2022-09-09T01:00:42;13.30;99.90
11003;DHT22;5554;55.796;13.090;2022-09-09T01:03:29;13.30;99.90
11003;DHT22;5554;55.796;13.090;2022-09-09T01:06:12;13.30;99.90
11003;DHT22;5554;55.796;13.090;2022-09-09T01:09:07;13.30;99.90
11003;DHT22;5554;55.796;13.090;2022-09-09T01:11:43;13.30;99.90
11003;DHT22;5554;55.796;13.090;2022-09-09T01:14:24;13.30;99.90
11003;DHT22;5554;55.796;13.090;2022-09-09T01:16:59;13.30;99.90
11003;DHT22;5554;55.796;13.090;2022-09-09T01:19:35;13.30;99.90
11003;DHT22;5554;55.796;13.090;2022-09-09T01:22:10;13.30;99.90
11003;DHT22;5554;55.796;13.090;2022-09-09T01:24:43;13.30;99.90
11003;DHT22;5554;55.796;13.090;2022-09-09T01:27:14;13.20;99.90
11003;DHT22;5554;55.796;13.090;2022-09-09T01:29:42;13.20;99.90
11003;DHT22;5554;55.796;13.090;2022-09-09T01:32:38;13.20;99.90
11003;DHT22;5554;55.796;13.090;2022-09-09T01:35:09;13.20;99.90
11003;DHT22;5554;55.796;13.090;2022-09-09T01:37:37;13.20;99.90
11003;DHT22;5554;55.796;13.090;2022-09-09T01:40:05;13.20;99.90
11003;DHT22;5554;55.796;13.090;2022-09-09T01:42:33;13.10;99.90
11003;DHT22;5554;55.796;13.090;2022-09-09T01:45:00;13.10;99.90
11003;DHT22;5554;55.796;13.090;2022-09-09T01:47:27;13.10;99.90
11003;DHT22;5554;55.796;13.090;2022-09-09T01:49:54;13.00;99.90
11003;DHT22;5554;55.796;13.090;2022-09-09T01:52:21;13.10;99.90
11003;DHT22;5554;55.796;13.090;2022-09-09T01:54:48;13.00;99.90
11003;DHT22;5554;55.796;13.090;2022-09-09T01:57:18;13.00;99.90
11003;DHT22;5554;55.796;13.090;2022-09-09T01:59:56;12.90;99.90
11003;DHT22;5554;55.796;13.090;2022-09-09T02:02:29;12.90;99.90
11003;DHT22;5554;55.796;13.090;2022-09-09T02:05:02;12.90;99.90
11003;DHT22;5554;55.796;13.090;2022-09-09T02:07:38;12.90;99.90
11003;DHT22;5554;55.796;13.090;2022-09-09T02:10:10;12.80;99.90
11003;DHT22;5554;55.796;13.090;2022-09-09T02:12:41;12.80;99.90
11003;DHT22;5554;55.796;13.090;2022-09-09T02:15:17;12.80;99.90
11003;DHT22;5554;55.796;13.090;2022-09-09T02:17:46;12.70;99.90
11003;DHT22;5554;55.796;13.090;2022-09-09T02:20:15;12.80;99.90
11003;DHT22;5554;55.796;13.090;2022-09-09T02:22:46;12.80;99.90
11003;DHT22;5554;55.796;13.090;2022-09-09T02:25:18;12.80;99.90
11003;DHT22;5554;55.796;13.090;2022-09-09T02:27:47;12.80;99.90
11003;DHT22;5554;55.796;13.090;2022-09-09T02:30:18;12.80;99.90
11003;DHT22;5554;55.796;13.090;2022-09-09T02:32:47;12.80;99.90
11003;DHT22;5554;55.796;13.090;2022-09-09T02:35:17;12.80;99.90
11003;DHT22;5554;55.796;13.090;2022-09-09T02:37:45;12.80;99.90
11003;DHT22;5554;55.796;13.090;2022-09-09T02:40:13;12.80;99.90
11003;DHT22;5554;55.796;13.090;2022-09-09T02:42:43;12.80;99.90
11003;DHT22;5554;55.796;13.090;2022-09-09T02:45:11;12.70;99.90
11003;DHT22;5554;55.796;13.090;2022-09-09T02:47:46;12.80;99.90
11003;DHT22;5554;55.796;13.090;2022-09-09T02:50:17;12.70;99.90
11003;DHT22;5554;55.796;13.090;2022-09-09T02:52:56;12.80;99.90
11003;DHT22;5554;55.796;13.090;2022-09-09T02:55:37;12.80;99.90
11003;DHT22;5554;55.796;13.090;2022-09-09T02:58:06;12.70;99.90
11003;DHT22;5554;55.796;13.090;2022-09-09T03:00:34;12.80;99.90
11003;DHT22;5554;55.796;13.090;2022-09-09T03:03:03;12.80;99.90
11003;DHT22;5554;55.796;13.090;2022-09-09T03:05:30;12.80;99.90
11003;DHT22;5554;55.796;13.090;2022-09-09T03:07:57;12.80;99.90
11003;DHT22;5554;55.796;13.090;2022-09-09T03:10:24;12.80;99.90
11003;DHT22;5554;55.796;13.090;2022-09-09T03:12:51;12.80;99.90
11003;DHT22;5554;55.796;13.090;2022-09-09T03:15:18;12.80;99.90
11003;DHT22;5554;55.796;13.090;2022-09-09T03:17:45;12.80;99.90
11003;DHT22;5554;55.796;13.090;2022-09-09T03:20:14;12.80;99.90
11003;DHT22;5554;55.796;13.090;2022-09-09T03:22:40;12.90;99.90
11003;DHT22;5554;55.796;13.090;2022-09-09T03:25:08;12.90;99.90
11003;DHT22;5554;55.796;13.090;2022-09-09T03:27:35;12.90;99.90
11003;DHT22;5554;55.796;13.090;2022-09-09T03:30:02;12.90;99.90
11003;DHT22;5554;55.796;13.090;2022-09-09T03:32:30;12.90;99.90
11003;DHT22;5554;55.796;13.090;2022-09-09T03:34:57;12.90;99.90
11003;DHT22;5554;55.796;13.090;2022-09-09T03:37:25;12.90;99.90
11003;DHT22;5554;55.796;13.090;2022-09-09T03:39:52;12.90;99.90
11003;DHT22;5554;55.796;13.090;2022-09-09T03:42:20;12.90;99.90
11003;DHT22;5554;55.796;13.090;2022-09-09T03:44:48;12.90;99.90
11003;DHT22;5554;55.796;13.090;2022-09-09T03:47:16;12.90;99.90
11003;DHT22;5554;55.796;13.090;2022-09-09T03:49:44;12.80;99.90
11003;DHT22;5554;55.796;13.090;2022-09-09T03:52:12;12.90;99.90
11003;DHT22;5554;55.796;13.090;2022-09-09T03:54:40;12.90;99.90
11003;DHT22;5554;55.796;13.090;2022-09-09T03:57:08;12.90;99.90
11003;DHT22;5554;55.796;13.090;2022-09-09T03:59:36;12.90;99.90
11003;DHT22;5554;55.796;13.090;2022-09-09T04:02:04;12.90;99.90
11003;DHT22;5554;55.796;13.090;2022-09-09T04:04:31;12.90;99.90
11003;DHT22;5554;55.796;13.090;2022-09-09T04:06:57;12.90;99.90
11003;DHT22;5554;55.796;13.090;2022-09-09T04:09:24;12.90;99.90
11003;DHT22;5554;55.796;13.090;2022-09-09T04:11:52;12.90;99.90
11003;DHT22;5554;55.796;13.090;2022-09-09T04:14:20;12.90;99.90
11003;DHT22;5554;55.796;13.090;2022-09-09T04:16:47;12.90;99.90
11003;DHT22;5554;55.796;13.090;2022-09-09T04:19:14;13.00;99.90
11003;DHT22;5554;55.796;13.090;2022-09-09T04:21:41;12.90;99.90
11003;DHT22;5554;55.796;13.090;2022-09-09T04:24:08;13.00;99.90
11003;DHT22;5554;55.796;13.090;2022-09-09T04:26:36;13.00;99.90
11003;DHT22;5554;55.796;13.090;2022-09-09T04:29:04;13.00;99.90
11003;DHT22;5554;55.796;13.090;2022-09-09T04:31:33;13.00;99.90
11003;DHT22;5554;55.796;13.090;2022-09-09T04:34:00;13.00;99.90
11003;DHT22;5554;55.796;13.090;2022-09-09T04:36:31;13.00;99.90
11003;DHT22;5554;55.796;13.090;2022-09-09T04:38:58;13.00;99.90
11003;DHT22;5554;55.796;13.090;2022-09-09T04:41:25;13.00;99.90
11003;DHT22;5554;55.796;13.090;2022-09-09T04:43:52;13.10;99.90
11003;DHT22;5554;55.796;13.090;2022-09-09T04:46:21;13.10;99.90
11003;DHT22;5554;55.796;13.090;2022-09-09T04:48:48;13.10;99.90
11003;DHT22;5554;55.796;13.090;2022-09-09T04:51:16;13.20;99.90
11003;DHT22;5554;55.796;13.090;2022-09-09T04:53:43;13.10;99.90
11003;DHT22;5554;55.796;13.090;2022-09-09T04:56:12;13.20;99.90
11003;DHT22;5554;55.796;13.090;2022-09-09T04:58:40;13.20;99.90
11003;DHT22;5554;55.796;13.090;2022-09-09T05:01:09;13.20;99.90
11003;DHT22;5554;55.796;13.090;2022-09-09T05:03:38;13.20;99.90
11003;DHT22;5554;55.796;13.090;2022-09-09T05:06:07;13.20;99.90
11003;DHT22;5554;55.796;13.090;2022-09-09T05:08:35;13.20;99.90
11003;DHT22;5554;55.796;13.090;2022-09-09T05:11:02;13.20;99.90
11003;DHT22;5554;55.796;13.090;2022-09-09T05:13:29;13.30;99.90
11003;DHT22;5554;55.796;13.090;2022-09-09T05:15:57;13.30;99.90
11003;DHT22;5554;55.796;13.090;2022-09-09T05:18:24;13.30;99.90
11003;DHT22;5554;55.796;13.090;2022-09-09T05:20:52;13.30;99.90
11003;DHT22;5554;55.796;13.090;2022-09-09T05:23:19;13.30;99.90
11003;DHT22;5554;55.796;13.090;2022-09-09T05:25:55;13.30;99.90
11003;DHT22;5554;55.796;13.090;2022-09-09T05:28:22;13.30;99.90
11003;DHT22;5554;55.796;13.090;2022-09-09T05:30:55;13.30;99.90
11003;DHT22;5554;55.796;13.090;2022-09-09T05:33:23;13.30;99.90
11003;DHT22;5554;55.796;13.090;2022-09-09T05:35:57;13.30;99.90
11003;DHT22;5554;55.796;13.090;2022-09-09T05:38:24;13.30;99.90
11003;DHT22;5554;55.796;13.090;2022-09-09T05:40:51;13.30;99.90
11003;DHT22;5554;55.796;13.090;2022-09-09T05:43:18;13.30;99.90
11003;DHT22;5554;55.796;13.090;2022-09-09T05:45:46;13.30;99.90
11003;DHT22;5554;55.796;13.090;2022-09-09T05:48:13;13.30;99.90
11003;DHT22;5554;55.796;13.090;2022-09-09T05:50:41;13.30;99.90
11003;DHT22;5554;55.796;13.090;2022-09-09T05:53:10;13.40;99.90
11003;DHT22;5554;55.796;13.090;2022-09-09T05:55:37;13.40;99.90
11003;DHT22;5554;55.796;13.090;2022-09-09T05:58:06;13.40;99.90
11003;DHT22;5554;55.796;13.090;2022-09-09T06:00:33;13.40;99.90
11003;DHT22;5554;55.796;13.090;2022-09-09T06:03:00;13.40;99.90
11003;DHT22;5554;55.796;13.090;2022-09-09T06:05:27;13.40;99.90
11003;DHT22;5554;55.796;13.090;2022-09-09T06:07:54;13.40;99.90
11003;DHT22;5554;55.796;13.090;2022-09-09T06:10:22;13.40;99.90
11003;DHT22;5554;55.796;13.090;2022-09-09T06:12:52;13.40;99.90
11003;DHT22;5554;55.796;13.090;2022-09-09T06:15:19;13.40;99.90
11003;DHT22;5554;55.796;13.090;2022-09-09T06:17:46;13.40;99.90
11003;DHT22;5554;55.796;13.090;2022-09-09T06:20:14;13.50;99.90
11003;DHT22;5554;55.796;13.090;2022-09-09T06:22:41;13.50;99.90
11003;DHT22;5554;55.796;13.090;2022-09-09T06:25:08;13.40;99.90
11003;DHT22;5554;55.796;13.090;2022-09-09T06:27:37;13.50;99.90
11003;DHT22;5554;55.796;13.090;2022-09-09T06:30:05;13.50;99.90
11003;DHT22;5554;55.796;13.090;2022-09-09T06:32:33;13.50;99.90
11003;DHT22;5554;55.796;13.090;2022-09-09T06:35:02;13.50;99.90
11003;DHT22;5554;55.796;13.090;2022-09-09T06:37:29;13.50;99.90
11003;DHT22;5554;55.796;13.090;2022-09-09T06:39:56;13.50;99.90
11003;DHT22;5554;55.796;13.090;2022-09-09T06:42:23;13.50;99.90
11003;DHT22;5554;55.796;13.090;2022-09-09T06:44:51;13.60;99.90
11003;DHT22;5554;55.796;13.090;2022-09-09T06:47:18;13.60;99.90
11003;DHT22;5554;55.796;13.090;2022-09-09T06:49:45;13.60;99.90
11003;DHT22;5554;55.796;13.090;2022-09-09T06:52:12;13.70;99.90
11003;DHT22;5554;55.796;13.090;2022-09-09T06:54:39;13.70;99.90
11003;DHT22;5554;55.796;13.090;2022-09-09T06:57:06;13.70;99.90
11003;DHT22;5554;55.796;13.090;2022-09-09T06:59:33;13.70;99.90
11003;DHT22;5554;55.796;13.090;2022-09-09T07:02:01;13.70;99.90
11003;DHT22;5554;55.796;13.090;2022-09-09T07:04:28;13.70;99.90
11003;DHT22;5554;55.796;13.090;2022-09-09T07:06:55;13.70;99.90
11003;DHT22;5554;55.796;13.090;2022-09-09T07:09:22;13.70;99.90
11003;DHT22;5554;55.796;13.090;2022-09-09T07:11:50;13.80;99.90
11003;DHT22;5554;55.796;13.090;2022-09-09T07:14:18;13.80;99.90
11003;DHT22;5554;55.796;13.090;2022-09-09T07:16:46;13.80;99.90
11003;DHT22;5554;55.796;13.090;2022-09-09T07:19:15;13.80;99.90
11003;DHT22;5554;55.796;13.090;2022-09-09T07:21:42;13.80;99.90
11003;DHT22;5554;55.796;13.090;2022-09-09T07:24:10;13.80;99.90
11003;DHT22;5554;55.796;13.090;2022-09-09T07:26:38;13.80;99.90
11003;DHT22;5554;55.796;13.090;2022-09-09T07:29:05;13.80;99.90
11003;DHT22;5554;55.796;13.090;2022-09-09T07:31:34;13.90;99.90
11003;DHT22;5554;55.796;13.090;2022-09-09T07:34:02;13.90;99.90
11003;DHT22;5554;55.796;13.090;2022-09-09T07:36:33;13.90;99.90
11003;DHT22;5554;55.796;13.090;2022-09-09T07:39:02;13.90;99.90
11003;DHT22;5554;55.796;13.090;2022-09-09T07:41:32;14.00;99.90
11003;DHT22;5554;55.796;13.090;2022-09-09T07:44:03;14.00;99.90
11003;DHT22;5554;55.796;13.090;2022-09-09T07:46:31;14.00;99.90
11003;DHT22;5554;55.796;13.090;2022-09-09T07:48:58;14.10;99.90
11003;DHT22;5554;55.796;13.090;2022-09-09T07:51:28;14.00;99.90
11003;DHT22;5554;55.796;13.090;2022-09-09T07:53:58;14.10;99.90
11003;DHT22;5554;55.796;13.090;2022-09-09T07:56:26;14.10;99.90
11003;DHT22;5554;55.796;13.090;2022-09-09T07:58:55;14.20;99.90
11003;DHT22;5554;55.796;13.090;2022-09-09T08:01:23;14.20;99.90
11003;DHT22;5554;55.796;13.090;2022-09-09T08:03:56;14.20;99.90
11003;DHT22;5554;55.796;13.090;2022-09-09T08:06:25;14.20;99.90
11003;DHT22;5554;55.796;13.090;2022-09-09T08:08:52;14.20;99.90
11003;DHT22;5554;55.796;13.090;2022-09-09T08:11:23;14.20;99.90
11003;DHT22;5554;55.796;13.090;2022-09-09T08:13:51;14.20;99.90
11003;DHT22;5554;55.796;13.090;2022-09-09T08:16:20;14.30;99.90
11003;DHT22;5554;55.796;13.090;2022-09-09T08:18:48;14.30;99.90
11003;DHT22;5554;55.796;13.090;2022-09-09T08:21:17;14.30;99.90
11003;DHT22;5554;55.796;13.090;2022-09-09T08:23:46;14.30;99.90
11003;DHT22;5554;55.796;13.090;2022-09-09T08:26:15;14.30;99.90
11003;DHT22;5554;55.796;13.090;2022-09-09T08:28:44;14.40;99.90
11003;DHT22;5554;55.796;13.090;2022-09-09T08:31:12;14.40;99.90
11003;DHT22;5554;55.796;13.090;2022-09-09T08:33:39;14.50;99.90
11003;DHT22;5554;55.796;13.090;2022-09-09T08:36:08;14.60;99.90
11003;DHT22;5554;55.796;13.090;2022-09-09T08:38:35;14.80;99.90
11003;DHT22;5554;55.796;13.090;2022-09-09T08:44:06;15.20;99.90
11003;DHT22;5554;55.796;13.090;2022-09-09T08:46:42;15.50;99.90
11003;DHT22;5554;55.796;13.090;2022-09-09T08:49:24;15.90;99.90
11003;DHT22;5554;55.796;13.090;2022-09-09T08:51:56;16.20;99.90
11003;DHT22;5554;55.796;13.090;2022-09-09T08:54:24;16.30;99.90
11003;DHT22;5554;55.796;13.090;2022-09-09T08:56:53;16.20;99.90
11003;DHT22;5554;55.796;13.090;2022-09-09T08:59:22;16.20;99.90
11003;DHT22;5554;55.796;13.090;2022-09-09T09:01:57;16.20;99.90
11003;DHT22;5554;55.796;13.090;2022-09-09T09:04:38;16.30;99.90
11003;DHT22;5554;55.796;13.090;2022-09-09T09:07:16;16.30;99.90
11003;DHT22;5554;55.796;13.090;2022-09-09T09:09:52;16.40;99.90
11003;DHT22;5554;55.796;13.090;2022-09-09T09:12:27;16.60;99.90
11003;DHT22;5554;55.796;13.090;2022-09-09T09:14:56;16.60;99.90
11003;DHT22;5554;55.796;13.090;2022-09-09T09:17:28;16.70;99.90
11003;DHT22;5554;55.796;13.090;2022-09-09T09:19:57;16.80;99.90
11003;DHT22;5554;55.796;13.090;2022-09-09T09:22:32;16.90;99.90
11003;DHT22;5554;55.796;13.090;2022-09-09T09:25:08;16.90;99.90
11003;DHT22;5554;55.796;13.090;2022-09-09T09:27:41;16.80;99.90
11003;DHT22;5554;55.796;13.090;2022-09-09T09:30:17;16.80;99.90
11003;DHT22;5554;55.796;13.090;2022-09-09T09:32:53;16.90;99.90
11003;DHT22;5554;55.796;13.090;2022-09-09T09:35:20;16.90;99.90
11003;DHT22;5554;55.796;13.090;2022-09-09T09:37:50;17.00;99.90
11003;DHT22;5554;55.796;13.090;2022-09-09T09:40:18;17.10;99.90
11003;DHT22;5554;55.796;13.090;2022-09-09T09:42:53;17.30;99.90
11003;DHT22;5554;55.796;13.090;2022-09-09T09:45:29;17.30;99.90
11003;DHT22;5554;55.796;13.090;2022-09-09T09:48:00;17.30;99.90
11003;DHT22;5554;55.796;13.090;2022-09-09T09:50:28;17.50;99.90
11003;DHT22;5554;55.796;13.090;2022-09-09T09:52:56;17.70;99.90
11003;DHT22;5554;55.796;13.090;2022-09-09T09:55:24;17.80;99.90
11003;DHT22;5554;55.796;13.090;2022-09-09T09:57:52;17.80;99.90
11003;DHT22;5554;55.796;13.090;2022-09-09T10:00:22;18.00;99.90
11003;DHT22;5554;55.796;13.090;2022-09-09T10:02:50;17.90;99.90
11003;DHT22;5554;55.796;13.090;2022-09-09T10:05:22;17.90;99.90
11003;DHT22;5554;55.796;13.090;2022-09-09T10:08:01;18.20;99.90
11003;DHT22;5554;55.796;13.090;2022-09-09T10:10:36;18.40;99.90
11003;DHT22;5554;55.796;13.090;2022-09-09T10:13:10;18.60;99.90
11003;DHT22;5554;55.796;13.090;2022-09-09T10:15:46;18.80;99.90
11003;DHT22;5554;55.796;13.090;2022-09-09T10:18:28;19.50;99.90
11003;DHT22;5554;55.796;13.090;2022-09-09T10:21:02;20.80;99.90
11003;DHT22;5554;55.796;13.090;2022-09-09T10:23:49;20.60;99.90
11003;DHT22;5554;55.796;13.090;2022-09-09T10:26:32;20.10;99.90
11003;DHT22;5554;55.796;13.090;2022-09-09T10:29:18;19.70;99.90
11003;DHT22;5554;55.796;13.090;2022-09-09T10:31:56;19.50;99.90
11003;DHT22;5554;55.796;13.090;2022-09-09T10:34:45;19.30;99.90
11003;DHT22;5554;55.796;13.090;2022-09-09T10:37:27;19.20;99.90
11003;DHT22;5554;55.796;13.090;2022-09-09T10:40:02;19.40;99.90
11003;DHT22;5554;55.796;13.090;2022-09-09T10:42:32;19.60;99.90
11003;DHT22;5554;55.796;13.090;2022-09-09T10:45:13;19.80;99.90
11003;DHT22;5554;55.796;13.090;2022-09-09T10:50:52;22.70;99.90
11003;DHT22;5554;55.796;13.090;2022-09-09T10:53:28;23.60;99.90
11003;DHT22;5554;55.796;13.090;2022-09-09T10:56:03;23.50;99.90
11003;DHT22;5554;55.796;13.090;2022-09-09T10:58:35;22.90;99.90
11003;DHT22;5554;55.796;13.090;2022-09-09T11:01:12;23.70;99.90
11003;DHT22;5554;55.796;13.090;2022-09-09T11:03:43;22.70;99.90
11003;DHT22;5554;55.796;13.090;2022-09-09T11:08:46;21.50;99.90
11003;DHT22;5554;55.796;13.090;2022-09-09T11:11:18;21.20;99.90
11003;DHT22;5554;55.796;13.090;2022-09-09T11:13:52;20.90;99.90
11003;DHT22;5554;55.796;13.090;2022-09-09T11:16:27;20.40;99.90
11003;DHT22;5554;55.796;13.090;2022-09-09T11:19:00;20.20;99.90
11003;DHT22;5554;55.796;13.090;2022-09-09T11:21:31;20.10;99.90
11003;DHT22;5554;55.796;13.090;2022-09-09T11:24:03;20.10;99.90
11003;DHT22;5554;55.796;13.090;2022-09-09T11:26:39;20.10;99.90
11003;DHT22;5554;55.796;13.090;2022-09-09T11:29:17;20.10;99.90
11003;DHT22;5554;55.796;13.090;2022-09-09T11:31:59;20.10;99.90
11003;DHT22;5554;55.796;13.090;2022-09-09T11:34:35;20.10;99.90
11003;DHT22;5554;55.796;13.090;2022-09-09T11:37:30;20.20;99.90
11003;DHT22;5554;55.796;13.090;2022-09-09T11:40:17;21.00;99.90
11003;DHT22;5554;55.796;13.090;2022-09-09T11:42:45;22.50;99.90
11003;DHT22;5554;55.796;13.090;2022-09-09T11:45:23;22.20;99.90
11003;DHT22;5554;55.796;13.090;2022-09-09T11:47:56;21.40;99.90
11003;DHT22;5554;55.796;13.090;2022-09-09T11:50:35;20.90;99.90
11003;DHT22;5554;55.796;13.090;2022-09-09T11:53:06;20.50;99.90
11003;DHT22;5554;55.796;13.090;2022-09-09T11:55:41;20.10;99.90
11003;DHT22;5554;55.796;13.090;2022-09-09T11:58:15;20.10;99.90
11003;DHT22;5554;55.796;13.090;2022-09-09T12:00:45;19.90;99.90
11003;DHT22;5554;55.796;13.090;2022-09-09T12:03:34;20.00;99.90
11003;DHT22;5554;55.796;13.090;2022-09-09T12:06:12;20.20;99.90
11003;DHT22;5554;55.796;13.090;2022-09-09T12:08:43;20.40;99.90
11003;DHT22;5554;55.796;13.090;2022-09-09T12:11:10;20.40;99.90
11003;DHT22;5554;55.796;13.090;2022-09-09T12:13:37;20.10;99.90
11003;DHT22;5554;55.796;13.090;2022-09-09T12:16:04;19.70;99.90
11003;DHT22;5554;55.796;13.090;2022-09-09T12:18:34;19.50;99.90
11003;DHT22;5554;55.796;13.090;2022-09-09T12:21:07;19.30;99.90
11003;DHT22;5554;55.796;13.090;2022-09-09T12:23:44;19.00;99.90
11003;DHT22;5554;55.796;13.090;2022-09-09T12:26:30;18.70;99.90
11003;DHT22;5554;55.796;13.090;2022-09-09T12:29:14;18.60;99.90
11003;DHT22;5554;55.796;13.090;2022-09-09T12:31:51;18.40;99.90
11003;DHT22;5554;55.796;13.090;2022-09-09T12:34:32;18.60;99.90
11003;DHT22;5554;55.796;13.090;2022-09-09T12:37:04;18.70;99.90
11003;DHT22;5554;55.796;13.090;2022-09-09T12:39:38;18.90;99.90
11003;DHT22;5554;55.796;13.090;2022-09-09T12:42:16;19.00;99.90
11003;DHT22;5554;55.796;13.090;2022-09-09T12:44:54;19.10;99.90
11003;DHT22;5554;55.796;13.090;2022-09-09T12:47:24;19.10;99.90
11003;DHT22;5554;55.796;13.090;2022-09-09T12:49:52;19.10;99.90
11003;DHT22;5554;55.796;13.090;2022-09-09T12:52:27;19.50;99.90
11003;DHT22;5554;55.796;13.090;2022-09-09T12:54:59;19.70;99.90
11003;DHT22;5554;55.796;13.090;2022-09-09T12:57:33;19.70;99.90
11003;DHT22;5554;55.796;13.090;2022-09-09T13:00:07;19.70;99.90
11003;DHT22;5554;55.796;13.090;2022-09-09T13:02:36;19.80;99.90
11003;DHT22;5554;55.796;13.090;2022-09-09T13:05:15;19.90;99.90
11003;DHT22;5554;55.796;13.090;2022-09-09T13:07:43;19.90;99.90
11003;DHT22;5554;55.796;13.090;2022-09-09T13:10:13;19.80;99.90
11003;DHT22;5554;55.796;13.090;2022-09-09T13:12:40;19.60;99.90
11003;DHT22;5554;55.796;13.090;2022-09-09T13:15:19;20.10;99.90
11003;DHT22;5554;55.796;13.090;2022-09-09T13:17:59;20.80;99.90
11003;DHT22;5554;55.796;13.090;2022-09-09T13:20:28;21.40;99.90
11003;DHT22;5554;55.796;13.090;2022-09-09T13:22:56;21.50;99.90
11003;DHT22;5554;55.796;13.090;2022-09-09T13:25:26;21.60;99.90
11003;DHT22;5554;55.796;13.090;2022-09-09T13:28:01;21.70;99.90
11003;DHT22;5554;55.796;13.090;2022-09-09T13:30:30;21.40;99.90
11003;DHT22;5554;55.796;13.090;2022-09-09T13:33:18;21.00;99.90
11003;DHT22;5554;55.796;13.090;2022-09-09T13:35:49;21.50;99.90
11003;DHT22;5554;55.796;13.090;2022-09-09T13:38:17;21.50;99.90
11003;DHT22;5554;55.796;13.090;2022-09-09T13:40:54;22.00;99.90
11003;DHT22;5554;55.796;13.090;2022-09-09T13:43:24;22.00;1.00
11003;DHT22;5554;55.796;13.090;2022-09-09T13:45:53;21.70;1.00
11003;DHT22;5554;55.796;13.090;2022-09-09T13:48:22;21.80;18.60
11003;DHT22;5554;55.796;13.090;2022-09-09T13:50:55;22.00;99.90
11003;DHT22;5554;55.796;13.090;2022-09-09T13:53:22;22.30;99.90
11003;DHT22;5554;55.796;13.090;2022-09-09T13:55:48;22.00;99.90
11003;DHT22;5554;55.796;13.090;2022-09-09T13:58:18;21.90;1.00
11003;DHT22;5554;55.796;13.090;2022-09-09T14:00:45;22.10;1.00
11003;DHT22;5554;55.796;13.090;2022-09-09T14:03:12;22.10;99.90
11003;DHT22;5554;55.796;13.090;2022-09-09T14:05:40;21.90;1.00
11003;DHT22;5554;55.796;13.090;2022-09-09T14:08:13;21.90;99.90
11003;DHT22;5554;55.796;13.090;2022-09-09T14:10:41;22.00;66.60
11003;DHT22;5554;55.796;13.090;2022-09-09T14:13:08;21.90;1.00
11003;DHT22;5554;55.796;13.090;2022-09-09T14:15:36;21.80;99.90
11003;DHT22;5554;55.796;13.090;2022-09-09T14:18:03;20.90;22.40
11003;DHT22;5554;55.796;13.090;2022-09-09T14:20:30;20.50;99.90
11003;DHT22;5554;55.796;13.090;2022-09-09T14:22:57;20.60;99.90
11003;DHT22;5554;55.796;13.090;2022-09-09T14:25:24;20.80;1.00
11003;DHT22;5554;55.796;13.090;2022-09-09T14:27:51;20.60;1.00
11003;DHT22;5554;55.796;13.090;2022-09-09T14:30:18;20.40;1.00
11003;DHT22;5554;55.796;13.090;2022-09-09T14:32:48;20.60;1.00
11003;DHT22;5554;55.796;13.090;2022-09-09T14:35:15;20.40;1.00
11003;DHT22;5554;55.796;13.090;2022-09-09T14:37:56;20.50;99.90
11003;DHT22;5554;55.796;13.090;2022-09-09T14:40:23;20.60;42.60
11003;DHT22;5554;55.796;13.090;2022-09-09T14:42:50;20.60;99.90
11003;DHT22;5554;55.796;13.090;2022-09-09T14:45:17;20.60;1.00
11003;DHT22;5554;55.796;13.090;2022-09-09T14:47:43;20.50;1.00
11003;DHT22;5554;55.796;13.090;2022-09-09T14:50:12;20.50;99.90
11003;DHT22;5554;55.796;13.090;2022-09-09T14:52:41;20.40;99.90
11003;DHT22;5554;55.796;13.090;2022-09-09T14:55:08;20.50;1.00
11003;DHT22;5554;55.796;13.090;2022-09-09T14:57:35;20.50;1.00
11003;DHT22;5554;55.796;13.090;2022-09-09T15:00:02;20.50;99.90
11003;DHT22;5554;55.796;13.090;2022-09-09T15:02:30;20.60;1.00
11003;DHT22;5554;55.796;13.090;2022-09-09T15:04:57;20.80;99.90
11003;DHT22;5554;55.796;13.090;2022-09-09T15:07:26;20.70;99.90
11003;DHT22;5554;55.796;13.090;2022-09-09T15:09:53;20.50;78.20
11003;DHT22;5554;55.796;13.090;2022-09-09T15:12:20;20.50;1.00
11003;DHT22;5554;55.796;13.090;2022-09-09T15:14:48;20.30;99.90
11003;DHT22;5554;55.796;13.090;2022-09-09T15:17:15;20.20;99.90
11003;DHT22;5554;55.796;13.090;2022-09-09T15:19:42;20.10;99.90
11003;DHT22;5554;55.796;13.090;2022-09-09T15:22:09;19.90;1.00
11003;DHT22;5554;55.796;13.090;2022-09-09T15:24:37;19.80;1.00
11003;DHT22;5554;55.796;13.090;2022-09-09T15:27:04;19.50;79.60
11003;DHT22;5554;55.796;13.090;2022-09-09T15:29:31;19.40;52.60
11003;DHT22;5554;55.796;13.090;2022-09-09T15:31:58;19.20;99.90
11003;DHT22;5554;55.796;13.090;2022-09-09T15:34:25;19.20;99.90
11003;DHT22;5554;55.796;13.090;2022-09-09T15:36:52;19.10;99.90
11003;DHT22;5554;55.796;13.090;2022-09-09T15:39:20;19.20;99.90
11003;DHT22;5554;55.796;13.090;2022-09-09T15:41:49;19.10;99.90
11003;DHT22;5554;55.796;13.090;2022-09-09T15:44:17;19.10;99.90
11003;DHT22;5554;55.796;13.090;2022-09-09T15:46:45;19.00;99.90
11003;DHT22;5554;55.796;13.090;2022-09-09T15:49:14;18.90;99.90
11003;DHT22;5554;55.796;13.090;2022-09-09T15:51:42;19.00;99.90
11003;DHT22;5554;55.796;13.090;2022-09-09T15:54:10;19.00;99.90
11003;DHT22;5554;55.796;13.090;2022-09-09T15:56:38;18.80;99.90
11003;DHT22;5554;55.796;13.090;2022-09-09T15:59:06;18.70;99.90
11003;DHT22;5554;55.796;13.090;2022-09-09T16:01:33;18.60;99.90
11003;DHT22;5554;55.796;13.090;2022-09-09T16:04:01;18.60;99.90